Newyork Harmony — 3FCL9 — position and weather

sailwx.info

Track history (hours):
 
Tides and Currents Weather Stations Pressure Air Temp Water Temp Dewpoint Dewpoint Depression Visibility Wind Speed Wind Dir Waves Ship Positions

Newyork Harmony

Last reported at 2017-Dec-17 16:51 UTC. Time now 2018-Jan-20 03:41 UTC.
Position S 32°45' W 072°41'.
Warning: this ship's position is 33 days out of date.

Length 182 m; draft 9.6 m.

Type: Cargo ship. MMSI: 354228000.

Date/timePositionNaut miles runAvg speedWind from/ knotsBaromVisibWave heightAir tempDewpointWater temp
2017-Dec-17 16:51S 32°45' W 072°41'5 8.8
2017-Dec-17 16:18S 32°43' W 072°37'4 8.8
2017-Dec-17 15:48S 32°40' W 072°32'7 9.2
2017-Dec-17 15:02S 32°36' W 072°26'0 9.3
2017-Dec-17 14:59S 32°35' W 072°25'  
2017-Dec-07 22:10N 09°08' W 079°49'4 8.0
2017-Dec-07 21:41N 09°11' W 079°52'2 9.5
2017-Dec-07 21:27N 09°12' W 079°54'3 7.8
2017-Dec-07 21:00N 09°15' W 079°55'0 0.6
2017-Dec-07 20:28N 09°15' W 079°55'0 0.1
2017-Dec-07 19:58N 09°15' W 079°55'0 0.2
2017-Dec-07 19:28N 09°15' W 079°55'0 0.1
2017-Dec-07 18:58N 09°15' W 079°55'0 0.1
2017-Dec-07 18:28N 09°15' W 079°55'0 0.1
2017-Dec-07 17:58N 09°15' W 079°55'0 0.0
2017-Dec-07 17:28N 09°15' W 079°55'0 0.0
2017-Dec-07 16:58N 09°15' W 079°55'  
Track history (hours):
 
Tides and Currents Weather Stations Pressure Air Temp Water Temp Dewpoint Dewpoint Depression Visibility Wind Speed Wind Dir Waves Ship Positions

Newyork Harmony

Last reported at 2017-Dec-17 16:51 UTC. Time now 2018-Jan-20 03:41 UTC.
Position S 32°45' W 072°41'.
Warning: this ship's position is 33 days out of date.

Length 182 m; draft 9.6 m.

Type: Cargo ship. MMSI: 354228000.

Date/timePositionNaut miles runAvg speedWind from/ knotsBaromVisibWave heightAir tempDewpointWater temp
2017-Dec-17 16:51S 32°45' W 072°41'5 8.8
2017-Dec-17 16:18S 32°43' W 072°37'4 8.8
2017-Dec-17 15:48S 32°40' W 072°32'7 9.2
2017-Dec-17 15:02S 32°36' W 072°26'0 9.3
2017-Dec-17 14:59S 32°35' W 072°25'  
2017-Dec-07 22:10N 09°08' W 079°49'4 8.0
2017-Dec-07 21:41N 09°11' W 079°52'2 9.5
2017-Dec-07 21:27N 09°12' W 079°54'3 7.8
2017-Dec-07 21:00N 09°15' W 079°55'0 0.6
2017-Dec-07 20:28N 09°15' W 079°55'0 0.1
2017-Dec-07 19:58N 09°15' W 079°55'0 0.2
2017-Dec-07 19:28N 09°15' W 079°55'0 0.1
2017-Dec-07 18:58N 09°15' W 079°55'0 0.1
2017-Dec-07 18:28N 09°15' W 079°55'0 0.1
2017-Dec-07 17:58N 09°15' W 079°55'0 0.0
2017-Dec-07 17:28N 09°15' W 079°55'0 0.0
2017-Dec-07 16:58N 09°15' W 079°55'  

Dump ship's entire track history